createdAt,value
2023-02-07T00:02:17.894Z,7.93
2023-02-07T00:04:44.610Z,7.88
2023-02-07T00:07:11.345Z,7.28
2023-02-07T00:09:40.438Z,8.05
2023-02-07T00:12:07.121Z,7.32
2023-02-07T00:14:34.331Z,7.55
2023-02-07T00:17:01.447Z,7.35
2023-02-07T00:19:28.144Z,6.80
2023-02-07T00:21:54.880Z,7.70
2023-02-07T00:24:21.672Z,7.47
2023-02-07T00:26:48.755Z,7.60
2023-02-07T00:29:15.776Z,7.57
2023-02-07T00:31:42.469Z,6.78
2023-02-07T00:34:09.261Z,8.10
2023-02-07T00:36:36.088Z,7.13
2023-02-07T00:39:03.019Z,6.63
2023-02-07T00:41:29.793Z,6.72
2023-02-07T00:43:56.585Z,7.00
2023-02-07T00:46:23.370Z,7.38
2023-02-07T00:48:50.951Z,7.47
2023-02-07T00:51:17.656Z,7.45
2023-02-07T00:53:45.209Z,7.32
2023-02-07T00:56:12.013Z,8.25
2023-02-07T00:58:38.745Z,7.70
2023-02-07T01:01:06.602Z,7.65
2023-02-07T01:03:33.466Z,7.80
2023-02-07T01:06:00.211Z,7.85
2023-02-07T01:08:29.730Z,7.40
2023-02-07T01:10:57.322Z,6.55
2023-02-07T01:13:24.037Z,6.85
2023-02-07T01:15:50.857Z,6.75
2023-02-07T01:18:17.702Z,7.75
2023-02-07T01:20:44.440Z,7.07
2023-02-07T01:23:11.283Z,6.85
2023-02-07T01:25:38.211Z,7.60
2023-02-07T01:28:05.132Z,7.35
2023-02-07T01:30:31.852Z,7.47
2023-02-07T01:32:58.652Z,7.03
2023-02-07T01:35:25.431Z,7.72
2023-02-07T01:37:53.662Z,7.88
2023-02-07T01:40:20.381Z,8.30
2023-02-07T01:42:47.093Z,7.90
2023-02-07T01:45:13.813Z,7.90
2023-02-07T01:47:40.815Z,7.70
2023-02-07T01:50:07.542Z,7.57
2023-02-07T01:52:34.328Z,8.02
2023-02-07T01:55:01.163Z,8.10
2023-02-07T01:57:27.880Z,8.55
2023-02-07T01:59:54.608Z,8.52
2023-02-07T02:02:22.123Z,10.00
2023-02-07T02:04:49.322Z,9.20
2023-02-07T02:07:16.114Z,10.27
2023-02-07T02:09:43.746Z,10.07
2023-02-07T02:12:10.568Z,11.50
2023-02-07T02:14:37.315Z,11.52
2023-02-07T02:17:04.018Z,11.93
2023-02-07T02:19:30.809Z,11.57
2023-02-07T02:21:57.616Z,12.38
2023-02-07T02:24:24.298Z,12.43
2023-02-07T02:26:50.990Z,11.93
2023-02-07T02:29:17.820Z,11.25
2023-02-07T02:31:44.718Z,9.40
2023-02-07T02:34:11.493Z,10.10
2023-02-07T02:36:38.361Z,10.38
2023-02-07T02:39:05.518Z,9.40
2023-02-07T02:41:32.249Z,10.35
2023-02-07T02:44:00.107Z,9.68
2023-02-07T02:46:27.025Z,9.75
2023-02-07T02:48:55.631Z,9.27
2023-02-07T02:51:22.358Z,9.63
2023-02-07T02:53:49.140Z,8.90
2023-02-07T02:56:16.034Z,9.45
2023-02-07T02:58:42.963Z,9.05
2023-02-07T03:01:09.735Z,9.48
2023-02-07T03:03:36.470Z,9.52
2023-02-07T03:06:03.665Z,9.15
2023-02-07T03:08:30.533Z,8.30
2023-02-07T03:10:57.275Z,9.85
2023-02-07T03:13:24.019Z,9.07
2023-02-07T03:15:50.701Z,9.77
2023-02-07T03:18:17.587Z,11.13
2023-02-07T03:20:44.593Z,12.40
2023-02-07T03:23:11.437Z,11.57
2023-02-07T03:25:38.558Z,11.95
2023-02-07T03:28:05.664Z,12.25
2023-02-07T03:30:32.458Z,11.98
2023-02-07T03:32:59.153Z,12.25
2023-02-07T03:35:25.899Z,13.05
2023-02-07T03:37:52.679Z,15.13
2023-02-07T03:40:19.374Z,13.32
2023-02-07T03:42:46.170Z,14.23
2023-02-07T03:45:12.907Z,14.80
2023-02-07T03:47:39.682Z,16.48
2023-02-07T03:50:06.430Z,14.52
2023-02-07T03:52:33.147Z,14.85
2023-02-07T03:54:59.841Z,14.60
2023-02-07T03:57:26.573Z,15.98
2023-02-07T03:59:53.502Z,16.30
2023-02-07T04:02:20.223Z,15.65
2023-02-07T04:04:47.036Z,14.25
2023-02-07T04:07:13.818Z,13.15
2023-02-07T04:09:40.531Z,15.63
2023-02-07T04:12:07.234Z,14.55
2023-02-07T04:14:33.951Z,14.57
2023-02-07T04:17:00.708Z,15.32
2023-02-07T04:19:27.390Z,16.08
2023-02-07T04:21:54.147Z,13.77
2023-02-07T04:24:20.853Z,14.25
2023-02-07T04:26:47.534Z,14.25
2023-02-07T04:29:14.207Z,15.02
2023-02-07T04:31:42.623Z,15.15
2023-02-07T04:34:13.139Z,15.48
2023-02-07T04:36:39.854Z,15.30
2023-02-07T04:39:06.622Z,14.35
2023-02-07T04:41:33.338Z,15.50
2023-02-07T04:44:00.049Z,12.88
2023-02-07T04:46:28.547Z,14.70
2023-02-07T04:48:55.301Z,13.98
2023-02-07T04:51:22.019Z,13.75
2023-02-07T04:53:48.760Z,14.02
2023-02-07T04:56:15.471Z,13.20
2023-02-07T04:58:43.020Z,14.00
2023-02-07T05:01:09.993Z,14.32
2023-02-07T05:03:36.725Z,13.02
2023-02-07T05:06:03.455Z,13.25
2023-02-07T05:08:30.146Z,13.70
2023-02-07T05:10:56.881Z,13.23
2023-02-07T05:13:23.699Z,12.80
2023-02-07T05:15:50.447Z,13.13
2023-02-07T05:18:17.236Z,13.88
2023-02-07T05:20:43.922Z,13.50
2023-02-07T05:23:10.628Z,14.00
2023-02-07T05:25:37.700Z,12.95
2023-02-07T05:28:04.569Z,12.30
2023-02-07T05:30:31.451Z,13.73
2023-02-07T05:33:04.411Z,14.02
2023-02-07T05:35:31.200Z,13.00
2023-02-07T05:37:57.893Z,12.85
2023-02-07T05:40:26.011Z,13.15
2023-02-07T05:42:52.865Z,13.38
2023-02-07T05:45:19.593Z,12.55
2023-02-07T05:47:46.273Z,13.90
2023-02-07T05:50:13.047Z,12.68
2023-02-07T05:52:39.758Z,13.50
2023-02-07T05:55:06.425Z,12.40
2023-02-07T05:57:33.189Z,12.68
2023-02-07T05:59:59.819Z,12.93
2023-02-07T06:02:26.639Z,11.85
2023-02-07T06:04:53.433Z,12.88
2023-02-07T06:07:20.105Z,12.82
2023-02-07T06:09:46.837Z,12.27
2023-02-07T06:12:13.596Z,12.32
2023-02-07T06:14:40.284Z,12.25
2023-02-07T06:17:06.969Z,13.10
2023-02-07T06:19:33.695Z,12.23
2023-02-07T06:22:00.461Z,12.32
2023-02-07T06:24:27.885Z,12.40
2023-02-07T06:26:54.580Z,11.85
2023-02-07T06:29:21.366Z,11.05
2023-02-07T06:31:48.118Z,12.25
2023-02-07T06:34:14.905Z,12.45
2023-02-07T06:36:41.637Z,11.10
2023-02-07T06:39:08.497Z,11.65
2023-02-07T06:41:35.239Z,11.18
2023-02-07T06:44:01.984Z,11.68
2023-02-07T06:46:28.738Z,10.25
2023-02-07T06:48:55.493Z,10.13
2023-02-07T06:51:22.188Z,11.10
2023-02-07T06:53:48.867Z,11.10
2023-02-07T06:56:18.344Z,11.27
2023-02-07T06:58:45.320Z,10.95
2023-02-07T07:01:12.035Z,11.35
2023-02-07T07:03:38.791Z,11.88
2023-02-07T07:06:05.512Z,12.45
2023-02-07T07:08:32.200Z,11.32
2023-02-07T07:10:58.877Z,11.38
2023-02-07T07:13:25.625Z,11.07
2023-02-07T07:15:52.485Z,11.35
2023-02-07T07:18:19.243Z,11.27
2023-02-07T07:20:46.008Z,11.98
2023-02-07T07:23:12.739Z,12.63
2023-02-07T07:25:39.681Z,11.40
2023-02-07T07:28:06.629Z,10.65
2023-02-07T07:30:33.520Z,12.98
2023-02-07T07:33:00.305Z,11.75
2023-02-07T07:35:27.100Z,11.68
2023-02-07T07:37:53.802Z,12.52
2023-02-07T07:40:20.537Z,11.80
2023-02-07T07:42:47.329Z,14.10
2023-02-07T07:45:23.532Z,12.75
2023-02-07T07:47:50.316Z,12.73
2023-02-07T07:50:17.096Z,14.18
2023-02-07T07:52:43.798Z,12.50
2023-02-07T07:55:10.589Z,13.10
2023-02-07T07:57:37.820Z,13.73
2023-02-07T08:00:04.542Z,12.43
2023-02-07T08:02:39.592Z,12.07
2023-02-07T08:05:06.336Z,13.52
2023-02-07T08:07:33.048Z,12.98
2023-02-07T08:09:59.815Z,14.00
2023-02-07T08:12:26.589Z,14.10
2023-02-07T08:14:53.359Z,14.40
2023-02-07T08:17:21.756Z,12.93
2023-02-07T08:19:48.536Z,14.38
2023-02-07T08:22:16.426Z,12.55
2023-02-07T08:24:43.177Z,11.05
2023-02-07T08:27:09.880Z,9.38
2023-02-07T08:29:37.253Z,9.48
2023-02-07T08:32:05.453Z,8.57
2023-02-07T08:34:37.487Z,8.68
2023-02-07T08:37:04.310Z,9.20
2023-02-07T08:39:31.390Z,9.80
2023-02-07T08:41:58.146Z,47.10
2023-02-07T08:44:24.843Z,15.30
2023-02-07T08:46:51.557Z,14.75
2023-02-07T08:49:18.287Z,15.77
2023-02-07T08:51:45.141Z,14.07
2023-02-07T08:54:12.067Z,15.52
2023-02-07T08:56:41.360Z,14.10
2023-02-07T08:59:08.388Z,14.98
2023-02-07T09:01:35.363Z,13.20
2023-02-07T09:04:11.559Z,16.52
2023-02-07T09:06:38.765Z,16.00
2023-02-07T09:09:05.519Z,16.85
2023-02-07T09:11:35.985Z,17.67
2023-02-07T09:14:02.960Z,16.70
2023-02-07T09:16:30.023Z,16.17
2023-02-07T09:18:56.891Z,17.67
2023-02-07T09:21:23.647Z,17.17
2023-02-07T09:23:53.357Z,17.25
2023-02-07T09:26:20.555Z,19.63
2023-02-07T09:28:47.407Z,18.88
2023-02-07T09:31:14.300Z,15.77
2023-02-07T09:33:44.282Z,18.63
2023-02-07T09:36:11.217Z,21.33
2023-02-07T09:38:37.991Z,19.10
2023-02-07T09:41:04.955Z,18.50
2023-02-07T09:43:37.526Z,19.27
2023-02-07T09:46:05.416Z,17.98
2023-02-07T09:48:32.185Z,15.65
2023-02-07T09:50:58.975Z,16.85
2023-02-07T09:53:25.704Z,16.45
2023-02-07T09:55:53.041Z,20.55
2023-02-07T09:58:19.933Z,22.85
2023-02-07T10:00:46.658Z,23.55
2023-02-07T10:03:13.504Z,23.60
2023-02-07T10:05:40.307Z,22.23
2023-02-07T10:08:07.432Z,20.23
2023-02-07T10:10:34.219Z,21.45
2023-02-07T10:13:01.308Z,20.92
2023-02-07T10:15:28.068Z,21.20
2023-02-07T10:17:55.285Z,20.55
2023-02-07T10:20:22.507Z,20.38
2023-02-07T10:22:49.548Z,21.85
2023-02-07T10:25:16.395Z,22.83
2023-02-07T10:27:43.268Z,22.60
2023-02-07T10:30:10.275Z,23.05
2023-02-07T10:32:37.243Z,22.13
2023-02-07T10:35:04.087Z,22.65
2023-02-07T10:37:30.982Z,22.95
2023-02-07T10:39:58.322Z,24.67
2023-02-07T10:42:25.384Z,23.75
2023-02-07T10:44:55.405Z,26.02
2023-02-07T10:47:23.428Z,24.35
2023-02-07T10:49:50.943Z,25.40
2023-02-07T10:52:17.874Z,24.90
2023-02-07T10:54:45.044Z,25.23
2023-02-07T10:57:11.995Z,25.10
2023-02-07T10:59:40.472Z,24.27
2023-02-07T11:02:09.835Z,24.65
2023-02-07T11:04:37.264Z,25.65
2023-02-07T11:07:04.129Z,24.30
2023-02-07T11:09:31.980Z,26.15
2023-02-07T11:11:58.743Z,27.52
2023-02-07T11:14:28.604Z,26.92
2023-02-07T11:16:55.379Z,27.77
2023-02-07T11:19:22.134Z,28.40
2023-02-07T11:21:48.901Z,27.27
2023-02-07T11:24:15.617Z,24.08
2023-02-07T11:26:42.377Z,24.23
2023-02-07T11:29:09.108Z,20.88
2023-02-07T11:31:35.968Z,20.13
2023-02-07T11:34:02.747Z,20.48
2023-02-07T11:36:30.416Z,21.17
2023-02-07T11:38:57.153Z,19.90
2023-02-07T11:41:25.543Z,20.63
2023-02-07T11:43:52.235Z,21.20
2023-02-07T11:46:19.090Z,19.45
2023-02-07T11:48:46.050Z,21.67
2023-02-07T11:51:12.765Z,22.75
2023-02-07T11:53:39.600Z,21.40
2023-02-07T11:56:06.310Z,20.42
2023-02-07T11:58:33.346Z,16.83
2023-02-07T12:01:00.158Z,16.98
2023-02-07T12:03:26.961Z,15.80
2023-02-07T12:05:53.736Z,13.20
2023-02-07T12:08:20.839Z,11.88
2023-02-07T12:10:47.565Z,13.10
2023-02-07T12:13:14.343Z,11.90
2023-02-07T12:15:41.254Z,11.35
2023-02-07T12:18:08.061Z,10.20
2023-02-07T12:20:34.803Z,10.63
2023-02-07T12:23:21.491Z,11.40
2023-02-07T12:25:48.731Z,11.00
2023-02-07T12:28:15.607Z,9.00
2023-02-07T12:30:42.454Z,8.75
2023-02-07T12:33:09.239Z,6.55
2023-02-07T12:35:37.744Z,6.25
2023-02-07T12:38:05.958Z,6.97
2023-02-07T12:40:32.715Z,7.63
2023-02-07T12:42:59.426Z,8.32
2023-02-07T12:45:26.236Z,13.38
2023-02-07T12:47:53.051Z,7.40
2023-02-07T12:50:19.770Z,7.40
2023-02-07T12:52:46.506Z,7.10
2023-02-07T12:55:13.570Z,6.75
2023-02-07T12:57:40.294Z,6.50
2023-02-07T13:00:07.088Z,6.70
2023-02-07T13:02:33.857Z,7.30
2023-02-07T13:05:00.611Z,6.20
2023-02-07T13:07:27.312Z,6.82
2023-02-07T13:09:53.992Z,7.43
2023-02-07T13:12:20.728Z,6.95
2023-02-07T13:14:47.504Z,7.53
2023-02-07T13:17:14.242Z,7.05
2023-02-07T13:19:40.945Z,7.00
2023-02-07T13:22:08.833Z,6.25
2023-02-07T13:24:35.624Z,6.03
2023-02-07T13:27:03.718Z,6.13
2023-02-07T13:29:30.432Z,7.03
2023-02-07T13:31:57.279Z,6.40
2023-02-07T13:34:24.148Z,6.75
2023-02-07T13:36:51.723Z,7.28
2023-02-07T13:39:19.040Z,6.35
2023-02-07T13:41:46.751Z,6.40
2023-02-07T13:44:13.431Z,7.00
2023-02-07T13:46:40.375Z,6.50
2023-02-07T13:49:07.165Z,6.85
2023-02-07T13:51:33.857Z,6.13
2023-02-07T13:54:00.687Z,5.97
2023-02-07T13:56:46.240Z,7.70
2023-02-07T13:59:31.798Z,9.75
2023-02-07T14:01:58.536Z,6.80
2023-02-07T14:04:25.448Z,6.95
2023-02-07T14:06:52.167Z,6.82
2023-02-07T14:09:26.045Z,6.10
2023-02-07T14:11:52.797Z,7.53
2023-02-07T14:14:19.469Z,7.38
2023-02-07T14:16:46.273Z,6.93
2023-02-07T14:19:13.178Z,7.50
2023-02-07T14:21:39.976Z,6.78
2023-02-07T14:24:08.601Z,6.97
2023-02-07T14:26:35.447Z,8.50
2023-02-07T14:29:02.457Z,7.55
2023-02-07T14:31:29.304Z,8.55
2023-02-07T14:33:56.424Z,6.80
2023-02-07T14:36:23.457Z,7.40
2023-02-07T14:38:50.501Z,6.93
2023-02-07T14:41:17.497Z,7.53
2023-02-07T14:43:44.479Z,7.47
2023-02-07T14:46:11.456Z,8.40
2023-02-07T14:48:41.034Z,8.23
2023-02-07T14:51:08.025Z,7.75
2023-02-07T14:53:34.991Z,8.18
2023-02-07T14:56:01.949Z,7.82
2023-02-07T14:58:28.635Z,8.27
2023-02-07T15:00:55.481Z,6.95
2023-02-07T15:03:22.396Z,7.03
2023-02-07T15:05:50.981Z,6.65
2023-02-07T15:08:17.966Z,6.60
2023-02-07T15:10:44.705Z,6.20
2023-02-07T15:13:11.679Z,6.63
2023-02-07T15:15:38.993Z,7.22
2023-02-07T15:18:05.748Z,6.13
2023-02-07T15:20:32.454Z,6.18
2023-02-07T15:22:59.177Z,6.65
2023-02-07T15:25:26.647Z,6.50
2023-02-07T15:27:53.381Z,6.50
2023-02-07T15:30:20.220Z,6.40
2023-02-07T15:32:47.501Z,6.85
2023-02-07T15:35:16.051Z,5.95
2023-02-07T15:37:42.800Z,6.38
2023-02-07T15:40:09.497Z,6.50
2023-02-07T15:42:36.253Z,6.80
2023-02-07T15:45:05.215Z,6.47
2023-02-07T15:47:33.607Z,9.23
2023-02-07T15:50:00.497Z,16.33
2023-02-07T15:52:27.225Z,15.23
2023-02-07T15:54:54.037Z,16.50
2023-02-07T15:57:20.777Z,16.98
2023-02-07T15:59:47.572Z,17.38
2023-02-07T16:02:14.284Z,18.25
2023-02-07T16:04:41.056Z,17.30
2023-02-07T16:07:07.803Z,17.45
2023-02-07T16:09:34.542Z,17.85
2023-02-07T16:12:01.271Z,16.95
2023-02-07T16:14:31.739Z,16.88
2023-02-07T16:16:58.429Z,17.70
2023-02-07T16:19:26.478Z,16.77
2023-02-07T16:21:53.385Z,16.55
2023-02-07T16:24:20.145Z,15.48
2023-02-07T16:26:46.896Z,16.58
2023-02-07T16:29:13.602Z,16.23
2023-02-07T16:31:40.354Z,15.40
2023-02-07T16:34:07.244Z,15.88
2023-02-07T16:36:34.003Z,15.18
2023-02-07T16:39:00.728Z,15.82
2023-02-07T16:41:31.385Z,15.40
2023-02-07T16:43:58.837Z,15.00
2023-02-07T16:46:25.579Z,16.88
2023-02-07T16:48:52.288Z,17.13
2023-02-07T16:51:19.036Z,14.98
2023-02-07T16:53:45.737Z,17.20
2023-02-07T16:56:12.520Z,15.30
2023-02-07T16:58:39.286Z,15.50
2023-02-07T17:01:06.127Z,14.88
2023-02-07T17:03:32.918Z,15.55
2023-02-07T17:05:59.673Z,15.38
2023-02-07T17:08:30.300Z,16.08
2023-02-07T17:10:57.015Z,15.40
2023-02-07T17:13:23.735Z,15.48
2023-02-07T17:15:50.382Z,14.80
2023-02-07T17:18:17.098Z,16.88
2023-02-07T17:20:43.842Z,16.63
2023-02-07T17:23:10.585Z,17.20
2023-02-07T17:25:37.373Z,17.45
2023-02-07T17:28:04.112Z,17.90
2023-02-07T17:30:30.857Z,17.38
2023-02-07T17:32:58.591Z,20.33
2023-02-07T17:35:25.416Z,22.08
2023-02-07T17:37:52.213Z,20.85
2023-02-07T17:40:18.977Z,21.85
2023-02-07T17:42:45.752Z,18.75
2023-02-07T17:45:12.483Z,18.67
2023-02-07T17:47:39.162Z,19.48
2023-02-07T17:50:07.698Z,18.63
2023-02-07T17:52:35.037Z,18.95
2023-02-07T17:55:01.750Z,18.25
2023-02-07T17:57:28.481Z,18.08
2023-02-07T17:59:55.264Z,17.77
2023-02-07T18:02:22.038Z,19.38
2023-02-07T18:04:51.500Z,18.65
2023-02-07T18:07:18.240Z,18.85
2023-02-07T18:09:44.943Z,19.15
2023-02-07T18:12:11.759Z,17.60
2023-02-07T18:14:38.427Z,19.23
2023-02-07T18:17:05.179Z,19.85
2023-02-07T18:19:32.650Z,20.02
2023-02-07T18:21:59.409Z,21.38
2023-02-07T18:24:26.122Z,20.85
2023-02-07T18:26:53.619Z,21.13
2023-02-07T18:29:20.453Z,20.55
2023-02-07T18:31:47.173Z,21.88
2023-02-07T18:34:13.988Z,20.92
2023-02-07T18:36:41.023Z,24.25
2023-02-07T18:39:07.861Z,23.38
2023-02-07T18:41:35.466Z,22.60
2023-02-07T18:44:03.144Z,23.00
2023-02-07T18:46:29.943Z,23.65
2023-02-07T18:48:56.896Z,22.83
2023-02-07T18:51:23.688Z,23.50
2023-02-07T18:53:56.535Z,23.33
2023-02-07T18:56:23.225Z,23.92
2023-02-07T18:58:52.869Z,23.40
2023-02-07T19:01:20.411Z,22.48
2023-02-07T19:03:47.182Z,22.42
2023-02-07T19:06:13.949Z,24.30
2023-02-07T19:08:40.640Z,24.30
2023-02-07T19:11:07.387Z,24.73
2023-02-07T19:13:34.128Z,23.05
2023-02-07T19:16:00.900Z,22.40
2023-02-07T19:18:27.625Z,22.70
2023-02-07T19:20:54.316Z,21.70
2023-02-07T19:23:21.080Z,23.17
2023-02-07T19:25:47.839Z,22.35
2023-02-07T19:28:14.619Z,23.85
2023-02-07T19:30:41.589Z,26.13
2023-02-07T19:33:08.556Z,24.23
2023-02-07T19:35:35.239Z,22.92
2023-02-07T19:38:01.936Z,24.05
2023-02-07T19:40:28.743Z,23.20
2023-02-07T19:42:55.538Z,24.60
2023-02-07T19:45:22.354Z,23.80
2023-02-07T19:47:49.105Z,24.65
2023-02-07T19:50:15.822Z,24.15
2023-02-07T19:52:42.546Z,24.40
2023-02-07T19:55:09.226Z,22.70
2023-02-07T19:57:36.068Z,24.55
2023-02-07T20:00:02.818Z,23.95
2023-02-07T20:02:31.478Z,22.88
2023-02-07T20:04:58.336Z,22.33
2023-02-07T20:07:25.121Z,24.48
2023-02-07T20:09:51.819Z,24.60
2023-02-07T20:12:18.525Z,23.92
2023-02-07T20:14:45.306Z,23.35
2023-02-07T20:17:12.004Z,24.25
2023-02-07T20:19:38.722Z,23.55
2023-02-07T20:22:05.463Z,24.88
2023-02-07T20:24:32.147Z,25.65
2023-02-07T20:26:58.905Z,25.02
2023-02-07T20:29:25.622Z,26.83
2023-02-07T20:31:52.839Z,26.98
2023-02-07T20:34:19.640Z,26.80
2023-02-07T20:36:46.611Z,26.33
2023-02-07T20:39:13.392Z,26.27
2023-02-07T20:41:41.643Z,27.10
2023-02-07T20:44:08.354Z,25.65
2023-02-07T20:46:35.151Z,26.00
2023-02-07T20:49:01.948Z,26.88
2023-02-07T20:51:29.192Z,24.27
2023-02-07T20:53:55.904Z,26.80
2023-02-07T20:56:22.663Z,26.45
2023-02-07T20:58:49.340Z,27.08
2023-02-07T21:01:16.193Z,26.10
2023-02-07T21:03:43.740Z,26.13
2023-02-07T21:06:11.827Z,27.45
2023-02-07T21:08:38.645Z,27.10
2023-02-07T21:11:05.559Z,27.83
2023-02-07T21:13:32.282Z,28.63
2023-02-07T21:16:03.437Z,27.55
2023-02-07T21:18:30.421Z,27.40
2023-02-07T21:20:57.270Z,28.33
2023-02-07T21:23:23.993Z,30.23
2023-02-07T21:25:50.792Z,27.85
2023-02-07T21:28:17.530Z,29.20
2023-02-07T21:30:44.382Z,27.52
2023-02-07T21:33:11.195Z,27.80
2023-02-07T21:35:38.083Z,27.25
2023-02-07T21:38:04.841Z,25.52
2023-02-07T21:40:31.603Z,25.98
2023-02-07T21:42:58.461Z,28.00
2023-02-07T21:45:25.194Z,26.48
2023-02-07T21:47:51.938Z,27.25
2023-02-07T21:50:18.665Z,27.63
2023-02-07T21:52:45.479Z,25.90
2023-02-07T21:55:12.293Z,26.80
2023-02-07T21:57:39.021Z,27.27
2023-02-07T22:00:08.181Z,26.77
2023-02-07T22:02:34.964Z,26.52
2023-02-07T22:05:01.742Z,27.95
2023-02-07T22:07:28.432Z,28.58
2023-02-07T22:09:55.173Z,28.73
2023-02-07T22:12:21.865Z,27.45
2023-02-07T22:14:48.721Z,29.25
2023-02-07T22:17:15.445Z,26.88
2023-02-07T22:19:42.144Z,28.50
2023-02-07T22:22:09.117Z,26.67
2023-02-07T22:24:35.945Z,27.83
2023-02-07T22:27:02.678Z,28.33
2023-02-07T22:29:29.464Z,30.48
2023-02-07T22:31:56.224Z,28.20
2023-02-07T22:34:22.975Z,29.48
2023-02-07T22:36:49.635Z,30.42
2023-02-07T22:39:16.426Z,30.27
2023-02-07T22:41:43.231Z,28.85
2023-02-07T22:44:09.917Z,29.85
2023-02-07T22:46:36.703Z,31.45
2023-02-07T22:49:03.495Z,29.25
2023-02-07T22:51:30.257Z,28.65
2023-02-07T22:53:56.987Z,29.08
2023-02-07T22:56:23.702Z,29.17
2023-02-07T22:58:50.487Z,27.88
2023-02-07T23:01:17.306Z,27.60
2023-02-07T23:03:44.144Z,27.42
2023-02-07T23:06:10.920Z,28.17
2023-02-07T23:08:37.822Z,27.73
2023-02-07T23:11:04.639Z,27.30
2023-02-07T23:13:31.390Z,26.95
2023-02-07T23:15:58.123Z,26.20
2023-02-07T23:18:25.546Z,27.48
2023-02-07T23:20:52.314Z,28.00
2023-02-07T23:23:19.298Z,27.05
2023-02-07T23:25:46.007Z,26.80
2023-02-07T23:28:12.760Z,28.60
2023-02-07T23:30:39.849Z,29.23
2023-02-07T23:33:06.788Z,26.83
2023-02-07T23:35:33.539Z,28.10
2023-02-07T23:38:00.273Z,27.50
2023-02-07T23:40:26.957Z,28.75
2023-02-07T23:42:53.654Z,27.05
2023-02-07T23:45:20.443Z,26.67
2023-02-07T23:47:47.156Z,27.50
2023-02-07T23:50:13.965Z,26.75
2023-02-07T23:52:40.705Z,26.58
2023-02-07T23:55:07.444Z,24.75
2023-02-07T23:57:34.152Z,26.75
